Time;durP1;ratioP1;P1;durP2;ratioP2;P2;SDS_P1;SDS_P2;PMS_P1;PMS_P2;Temp;Humidity;BMP_temperature;BMP_pressure;BME280_temperature;BME280_humidity;BME280_pressure;Samples;Min_cycle;Max_cycle;Signal;HPM_P1;HPM_P2
2023/07/10 00:00:20;;;;;;;7.30;5.57;;;28.40;68.40;;;;;;5072905;28;20303;-75
2023/07/10 00:02:47;;;;;;;6.87;5.37;;;28.40;68.20;;;;;;5073864;28;20249;-75
2023/07/10 00:05:14;;;;;;;8.07;5.60;;;28.40;68.10;;;;;;5074040;28;20204;-75
2023/07/10 00:07:43;;;;;;;8.83;5.23;;;28.40;68.10;;;;;;5071712;28;20217;-75
2023/07/10 00:10:11;;;;;;;5.57;4.70;;;28.40;67.80;;;;;;5072825;28;20208;-75
2023/07/10 00:12:39;;;;;;;6.47;5.53;;;28.50;68.00;;;;;;5073710;28;20207;-74
2023/07/10 00:15:15;;;;;;;8.27;5.60;;;28.50;67.70;;;;;;5072754;28;20216;-75
2023/07/10 00:17:45;;;;;;;5.83;5.33;;;28.50;67.90;;;;;;5070378;28;20644;-75
2023/07/10 00:20:17;;;;;;;6.40;5.33;;;28.50;68.30;;;;;;5073721;28;20199;-75
2023/07/10 00:22:46;;;;;;;7.43;5.47;;;28.60;67.70;;;;;;5073298;28;20657;-75
2023/07/10 00:25:15;;;;;;;5.87;5.27;;;28.60;67.40;;;;;;5072319;28;20197;-75
2023/07/10 00:27:43;;;;;;;7.23;5.77;;;28.60;67.50;;;;;;5072715;28;20311;-75
2023/07/10 00:30:18;;;;;;;6.33;5.27;;;28.60;67.50;;;;;;5073318;28;20561;-75
2023/07/10 00:32:47;;;;;;;5.40;4.90;;;28.50;68.00;;;;;;5073125;28;20212;-74
2023/07/10 00:35:17;;;;;;;6.40;5.10;;;28.50;67.70;;;;;;5072301;28;20204;-74
2023/07/10 00:37:47;;;;;;;5.63;5.07;;;28.50;67.90;;;;;;5072578;28;20209;-75
2023/07/10 00:40:20;;;;;;;6.67;5.83;;;28.50;68.00;;;;;;5072633;28;20233;-75
2023/07/10 00:42:48;;;;;;;6.50;5.60;;;28.50;68.30;;;;;;5065849;28;20289;-75
2023/07/10 00:45:16;;;;;;;6.07;5.33;;;28.40;68.40;;;;;;5067804;28;20259;-75
2023/07/10 00:47:50;;;;;;;5.27;4.77;;;28.40;68.10;;;;;;5073698;28;20227;-75
2023/07/10 00:50:22;;;;;;;7.07;5.07;;;28.40;68.30;;;;;;5073434;28;20195;-75
2023/07/10 00:52:51;;;;;;;6.20;5.33;;;28.40;68.50;;;;;;5073446;28;20583;-75
2023/07/10 00:55:22;;;;;;;6.57;5.30;;;28.30;68.40;;;;;;5073550;28;20202;-75
2023/07/10 00:57:54;;;;;;;6.07;5.47;;;28.30;68.80;;;;;;5073391;28;20209;-75
2023/07/10 01:00:23;;;;;;;6.63;5.80;;;28.30;68.80;;;;;;5072942;28;20247;-75
2023/07/10 01:02:51;;;;;;;6.40;5.60;;;28.20;68.70;;;;;;5073173;28;20238;-75
2023/07/10 01:05:19;;;;;;;7.23;5.20;;;28.20;68.80;;;;;;5073292;28;20773;-74
2023/07/10 01:07:52;;;;;;;6.73;5.90;;;28.10;69.10;;;;;;5072886;28;20440;-75
2023/07/10 01:10:19;;;;;;;6.77;5.93;;;28.10;69.40;;;;;;5072680;28;20204;-75
2023/07/10 01:12:47;;;;;;;6.83;5.73;;;28.00;69.40;;;;;;5072469;28;20672;-75
2023/07/10 01:15:15;;;;;;;6.27;5.67;;;28.00;69.90;;;;;;5072557;28;20192;-74
2023/07/10 01:17:42;;;;;;;6.43;5.27;;;27.90;69.80;;;;;;5036355;28;20258;-75
2023/07/10 01:20:33;;;;;;;8.13;5.93;;;27.90;69.80;;;;;;5071740;28;20223;-75
2023/07/10 01:23:02;;;;;;;8.20;5.83;;;27.80;70.80;;;;;;5071491;28;20200;-75
2023/07/10 01:25:32;;;;;;;7.67;5.70;;;27.80;69.90;;;;;;5072367;28;20304;-75
2023/07/10 01:27:59;;;;;;;6.03;5.47;;;27.90;69.80;;;;;;5071890;28;20238;-74
2023/07/10 01:30:31;;;;;;;6.90;5.37;;;27.80;69.70;;;;;;5072418;28;20290;-75
2023/07/10 01:32:59;;;;;;;5.80;5.13;;;27.90;70.10;;;;;;5072460;28;20290;-75
2023/07/10 01:35:29;;;;;;;5.83;4.83;;;27.90;70.10;;;;;;5074801;28;20289;-75
2023/07/10 01:37:56;;;;;;;6.63;5.10;;;27.80;70.20;;;;;;5073785;28;20226;-75
2023/07/10 01:40:30;;;;;;;6.33;5.30;;;27.80;70.00;;;;;;5083536;28;20303;-75
2023/07/10 01:42:59;;;;;;;5.67;5.10;;;27.80;70.60;;;;;;5080359;28;20274;-75
2023/07/10 01:45:28;;;;;;;6.63;5.10;;;27.70;70.50;;;;;;5072527;28;20218;-75
2023/07/10 01:47:56;;;;;;;6.13;5.00;;;27.70;70.70;;;;;;5082191;28;20207;-75
2023/07/10 01:50:23;;;;;;;7.17;4.97;;;27.60;70.70;;;;;;5072174;28;20715;-75
2023/07/10 01:52:50;;;;;;;5.87;5.23;;;27.60;70.80;;;;;;5071609;28;20290;-75
2023/07/10 01:55:20;;;;;;;5.50;5.00;;;27.50;70.70;;;;;;5079725;28;20205;-75
2023/07/10 01:57:48;;;;;;;5.97;5.37;;;27.50;70.80;;;;;;5074645;28;20195;-75
2023/07/10 02:00:16;;;;;;;7.00;4.77;;;27.50;71.00;;;;;;5080083;28;20202;-75
2023/07/10 02:02:43;;;;;;;6.07;5.43;;;27.50;71.10;;;;;;5078800;28;20302;-75
2023/07/10 02:05:10;;;;;;;5.33;4.90;;;27.50;70.90;;;;;;5075946;28;20213;-75
2023/07/10 02:07:37;;;;;;;4.77;4.27;;;27.40;70.70;;;;;;5072625;28;20198;-75
2023/07/10 02:10:04;;;;;;;5.37;4.87;;;27.50;70.80;;;;;;5082895;28;20218;-75
2023/07/10 02:12:31;;;;;;;6.53;5.53;;;27.50;71.10;;;;;;5072015;28;20219;-75
2023/07/10 02:14:59;;;;;;;9.53;5.60;;;27.60;70.90;;;;;;5080080;28;20199;-75
2023/07/10 02:17:26;;;;;;;7.90;5.47;;;27.50;70.80;;;;;;5071448;28;20208;-75
2023/07/10 02:19:53;;;;;;;6.17;5.57;;;27.40;70.70;;;;;;5072708;28;20198;-74
2023/07/10 02:22:20;;;;;;;8.10;5.30;;;27.40;71.70;;;;;;5074668;28;20651;-75
2023/07/10 02:24:46;;;;;;;5.50;4.97;;;27.40;71.10;;;;;;5071123;28;20217;-74
2023/07/10 02:27:13;;;;;;;5.60;5.10;;;27.30;71.80;;;;;;5066903;28;20233;-74
2023/07/10 02:29:40;;;;;;;5.83;4.63;;;27.30;70.80;;;;;;5052535;28;20214;-75
2023/07/10 02:32:09;;;;;;;5.73;4.70;;;27.40;70.70;;;;;;5071098;28;20194;-75
2023/07/10 02:34:36;;;;;;;5.73;5.17;;;27.40;70.80;;;;;;5070655;28;20294;-74
2023/07/10 02:37:03;;;;;;;7.63;5.30;;;27.40;70.50;;;;;;5070182;28;20212;-75
2023/07/10 02:39:29;;;;;;;8.90;4.87;;;27.40;70.10;;;;;;5066162;28;20203;-75
2023/07/10 02:41:56;;;;;;;7.40;5.20;;;27.40;69.70;;;;;;5054461;28;20217;-75
2023/07/10 02:44:23;;;;;;;9.37;5.57;;;27.40;69.30;;;;;;5070545;28;20225;-75
2023/07/10 02:46:50;;;;;;;7.63;4.97;;;27.50;68.90;;;;;;5070883;28;20230;-75
2023/07/10 02:49:18;;;;;;;5.23;4.73;;;27.50;68.30;;;;;;5082989;28;20203;-74
2023/07/10 02:51:45;;;;;;;5.47;4.67;;;27.60;68.10;;;;;;5085643;28;20239;-75
2023/07/10 02:54:13;;;;;;;5.73;4.50;;;27.60;67.70;;;;;;5078064;28;20661;-75
2023/07/10 02:56:40;;;;;;;5.47;4.97;;;27.60;67.50;;;;;;5070554;28;20294;-74
2023/07/10 02:59:07;;;;;;;8.17;5.00;;;27.60;68.00;;;;;;5082069;28;20602;-75
2023/07/10 03:01:34;;;;;;;4.93;4.43;;;27.60;67.80;;;;;;5073680;28;20212;-74
2023/07/10 03:04:01;;;;;;;6.10;4.57;;;27.60;67.90;;;;;;5080393;28;20232;-75
2023/07/10 03:06:31;;;;;;;5.33;4.50;;;27.60;67.70;;;;;;5070634;28;20195;-75
2023/07/10 03:08:59;;;;;;;5.57;5.03;;;27.60;67.80;;;;;;5070305;28;20218;-75
2023/07/10 03:11:28;;;;;;;6.33;5.03;;;27.60;68.00;;;;;;5074445;28;20210;-75
2023/07/10 03:13:57;;;;;;;5.73;5.03;;;27.50;67.80;;;;;;5060773;28;20213;-75
2023/07/10 03:16:24;;;;;;;5.30;4.73;;;27.40;67.70;;;;;;5064703;28;20221;-75
2023/07/10 03:18:51;;;;;;;6.00;4.87;;;27.40;67.50;;;;;;5070185;28;20203;-75
2023/07/10 03:21:18;;;;;;;4.77;4.37;;;27.40;67.50;;;;;;5070648;28;20207;-75
2023/07/10 03:23:48;;;;;;;6.37;5.03;;;27.40;67.30;;;;;;5070303;28;20198;-75
2023/07/10 03:26:15;;;;;;;5.67;4.90;;;27.30;67.00;;;;;;5069304;28;20305;-75
2023/07/10 03:28:42;;;;;;;6.03;5.10;;;27.30;67.70;;;;;;5065727;28;20321;-75
2023/07/10 03:31:09;;;;;;;6.57;4.80;;;27.40;66.80;;;;;;5075710;28;20198;-75
2023/07/10 03:33:36;;;;;;;5.57;5.07;;;27.30;66.80;;;;;;5069469;28;20300;-74
2023/07/10 03:36:06;;;;;;;8.07;4.80;;;27.30;66.80;;;;;;5069656;28;20199;-74
2023/07/10 03:38:33;;;;;;;6.37;4.80;;;27.30;66.80;;;;;;5080149;28;20251;-74
2023/07/10 03:41:01;;;;;;;7.33;4.90;;;27.40;66.80;;;;;;5075471;28;20208;-75
2023/07/10 03:43:29;;;;;;;7.30;5.10;;;27.40;66.90;;;;;;5067206;28;20207;-75
2023/07/10 03:45:56;;;;;;;6.00;4.90;;;27.40;66.80;;;;;;5074521;28;20242;-75
2023/07/10 03:48:23;;;;;;;6.43;4.77;;;27.50;66.90;;;;;;5085401;28;20210;-75
2023/07/10 03:50:50;;;;;;;7.37;5.23;;;27.50;66.70;;;;;;5077419;28;20225;-75
2023/07/10 03:53:17;;;;;;;5.80;5.20;;;27.60;66.70;;;;;;5086878;28;20701;-75
2023/07/10 03:55:50;;;;;;;6.97;5.00;;;27.50;66.80;;;;;;5070112;28;20194;-75
2023/07/10 03:58:21;;;;;;;6.37;4.40;;;27.60;67.10;;;;;;5069707;28;20289;-75
2023/07/10 04:00:49;;;;;;;6.63;4.73;;;27.60;66.70;;;;;;5069927;28;20602;-75
2023/07/10 04:03:16;;;;;;;5.70;4.53;;;27.60;66.90;;;;;;5069299;28;20231;-75
2023/07/10 04:05:48;;;;;;;6.23;5.00;;;27.70;66.90;;;;;;5070205;28;20312;-75
2023/07/10 04:08:15;;;;;;;5.37;4.40;;;27.70;66.90;;;;;;5069693;28;20200;-75
2023/07/10 04:10:42;;;;;;;5.03;4.53;;;27.80;66.90;;;;;;5069913;28;20313;-75
2023/07/10 04:13:08;;;;;;;5.17;4.77;;;27.80;66.70;;;;;;5050287;28;20758;-75
2023/07/10 04:15:37;;;;;;;5.03;4.13;;;27.80;66.60;;;;;;5050667;28;20644;-75
2023/07/10 04:18:04;;;;;;;6.87;4.60;;;27.90;66.80;;;;;;5050127;28;20663;-75
2023/07/10 04:20:31;;;;;;;7.20;5.10;;;27.90;66.90;;;;;;5050220;28;20696;-75
2023/07/10 04:22:57;;;;;;;5.33;4.73;;;27.90;67.00;;;;;;5014736;28;20319;-75
2023/07/10 04:25:24;;;;;;;7.30;5.40;;;27.90;67.10;;;;;;5066417;28;20315;-75
2023/07/10 04:27:50;;;;;;;7.33;5.00;;;27.90;67.10;;;;;;5070432;28;20534;-75
2023/07/10 04:30:17;;;;;;;7.00;5.03;;;27.90;67.30;;;;;;5084724;28;20289;-75
2023/07/10 04:32:45;;;;;;;5.10;4.60;;;27.90;67.60;;;;;;5073955;28;20260;-75
2023/07/10 04:35:12;;;;;;;8.50;5.30;;;27.90;67.70;;;;;;5070334;28;20204;-75
2023/07/10 04:37:39;;;;;;;6.30;5.10;;;27.80;68.10;;;;;;5087196;28;20218;-75
2023/07/10 04:40:07;;;;;;;5.67;4.40;;;27.70;68.40;;;;;;5088875;28;20236;-75
2023/07/10 04:42:34;;;;;;;9.83;5.80;;;27.70;68.80;;;;;;5087512;28;20195;-75
2023/07/10 04:45:01;;;;;;;7.23;5.17;;;27.70;68.90;;;;;;5092750;28;20219;-75
2023/07/10 04:47:28;;;;;;;7.67;5.00;;;27.70;68.90;;;;;;5087699;28;20543;-75
2023/07/10 04:49:56;;;;;;;8.07;5.10;;;27.70;69.00;;;;;;5076720;28;20683;-75
2023/07/10 04:52:23;;;;;;;5.57;4.77;;;27.70;69.20;;;;;;5080517;28;20590;-74
2023/07/10 04:54:51;;;;;;;7.40;5.13;;;27.80;69.60;;;;;;5087312;28;20203;-75
2023/07/10 04:57:18;;;;;;;5.63;5.13;;;27.80;69.70;;;;;;5074437;28;20213;-74
2023/07/10 04:59:46;;;;;;;5.77;5.03;;;27.80;70.40;;;;;;5085452;28;20255;-75
2023/07/10 05:02:13;;;;;;;5.20;4.70;;;27.70;71.00;;;;;;5091344;28;20190;-75
2023/07/10 05:04:40;;;;;;;7.10;5.20;;;27.70;71.10;;;;;;5073683;28;20217;-75
2023/07/10 05:07:10;;;;;;;6.93;5.57;;;27.70;71.80;;;;;;5083619;28;20238;-74
2023/07/10 05:09:37;;;;;;;7.40;4.83;;;27.70;71.60;;;;;;5086099;28;20202;-73
2023/07/10 05:12:05;;;;;;;6.73;5.37;;;27.70;71.50;;;;;;5073513;28;20646;-73
2023/07/10 05:14:32;;;;;;;9.70;5.73;;;27.70;71.60;;;;;;5086836;28;20227;-73
2023/07/10 05:16:59;;;;;;;6.10;5.23;;;27.70;71.70;;;;;;5093463;28;20214;-74
2023/07/10 05:19:26;;;;;;;5.70;5.07;;;27.70;71.90;;;;;;5079053;28;20205;-73
2023/07/10 05:21:53;;;;;;;6.53;5.60;;;27.60;72.10;;;;;;5073207;28;20212;-74
2023/07/10 05:24:21;;;;;;;7.20;5.23;;;27.50;72.00;;;;;;5073297;28;20252;-74
2023/07/10 05:26:48;;;;;;;6.80;5.37;;;27.50;72.10;;;;;;5053211;28;20298;-74
2023/07/10 05:29:15;;;;;;;9.33;5.80;;;27.50;72.40;;;;;;5068458;28;20199;-74
2023/07/10 05:31:42;;;;;;;9.17;5.80;;;27.60;72.50;;;;;;5083753;28;20196;-75
2023/07/10 05:34:09;;;;;;;7.40;5.27;;;27.50;72.40;;;;;;5074398;28;20224;-75
2023/07/10 05:36:35;;;;;;;6.07;5.20;;;27.50;73.50;;;;;;5074836;28;20198;-74
2023/07/10 05:39:02;;;;;;;8.10;5.50;;;27.50;72.60;;;;;;5072675;28;20233;-75
2023/07/10 05:41:32;;;;;;;6.17;5.30;;;27.40;72.80;;;;;;5072860;28;20223;-75
2023/07/10 05:43:59;;;;;;;5.97;5.30;;;27.50;73.00;;;;;;5072411;28;20207;-75
2023/07/10 05:46:26;;;;;;;7.33;5.37;;;27.60;72.80;;;;;;5082837;28;20241;-74
2023/07/10 05:48:55;;;;;;;7.30;5.50;;;27.60;72.90;;;;;;5077956;28;20203;-75
2023/07/10 05:51:22;;;;;;;5.80;5.20;;;27.40;73.00;;;;;;5084350;28;20306;-75
2023/07/10 05:53:49;;;;;;;5.73;4.63;;;27.40;73.50;;;;;;5059651;28;20206;-75
2023/07/10 05:56:16;;;;;;;6.30;5.40;;;27.50;73.40;;;;;;5074135;28;20202;-74
2023/07/10 05:58:44;;;;;;;8.47;5.03;;;27.60;73.10;;;;;;5072628;28;20245;-75
2023/07/10 06:01:12;;;;;;;6.93;5.10;;;27.70;73.00;;;;;;5073166;28;20225;-75
2023/07/10 06:03:38;;;;;;;7.93;5.13;;;27.80;72.70;;;;;;5073139;28;20318;-75
2023/07/10 06:06:06;;;;;;;7.47;5.07;;;27.90;72.70;;;;;;5073182;28;20321;-73
2023/07/10 06:08:35;;;;;;;9.17;5.70;;;28.10;72.70;;;;;;5072719;28;20219;-73
2023/07/10 06:11:01;;;;;;;8.17;5.13;;;28.00;72.60;;;;;;5080968;28;20223;-74
2023/07/10 06:13:28;;;;;;;5.43;4.80;;;28.10;72.70;;;;;;5083715;28;20197;-68
2023/07/10 06:15:58;;;;;;;5.43;4.83;;;28.10;72.60;;;;;;5084206;28;20208;-67
2023/07/10 06:18:25;;;;;;;7.90;5.07;;;28.20;72.70;;;;;;5091515;28;20226;-68
2023/07/10 06:20:53;;;;;;;6.17;4.90;;;28.20;72.60;;;;;;5088717;28;20264;-68
2023/07/10 06:23:21;;;;;;;8.07;5.57;;;28.20;72.50;;;;;;5071346;28;20205;-68
2023/07/10 06:25:48;;;;;;;5.60;4.67;;;28.20;72.40;;;;;;5071587;28;20246;-68
2023/07/10 06:28:15;;;;;;;6.50;5.33;;;28.20;72.70;;;;;;5070143;28;20296;-68
2023/07/10 06:30:42;;;;;;;7.07;4.73;;;28.30;72.60;;;;;;5070975;28;20208;-68
2023/07/10 06:33:11;;;;;;;5.70;5.10;;;28.40;72.30;;;;;;5070940;28;20226;-68
2023/07/10 06:35:37;;;;;;;6.37;4.97;;;28.40;72.20;;;;;;5070930;28;20209;-68
2023/07/10 06:38:04;;;;;;;5.33;4.83;;;28.60;72.20;;;;;;5065946;28;20201;-68
2023/07/10 06:40:31;;;;;;;7.23;4.93;;;28.70;71.90;;;;;;5050716;28;20235;-68
2023/07/10 06:42:58;;;;;;;6.27;5.03;;;28.80;71.60;;;;;;5067784;28;20209;-68
2023/07/10 06:45:25;;;;;;;7.80;4.90;;;29.00;71.30;;;;;;5070925;28;20223;-68
2023/07/10 06:47:51;;;;;;;5.87;4.77;;;29.00;71.20;;;;;;5069880;28;20209;-69
2023/07/10 06:50:20;;;;;;;7.10;4.73;;;29.00;70.80;;;;;;5070568;28;20662;-68
2023/07/10 06:52:47;;;;;;;4.90;4.40;;;29.10;70.90;;;;;;5070294;28;20208;-68
2023/07/10 06:55:16;;;;;;;6.10;4.60;;;29.10;70.80;;;;;;5070339;28;20201;-68
2023/07/10 06:57:44;;;;;;;7.17;4.40;;;29.20;70.70;;;;;;5070139;28;20216;-68
2023/07/10 07:00:14;;;;;;;6.20;4.40;;;29.30;70.50;;;;;;5068804;28;20222;-73
2023/07/10 07:02:41;;;;;;;5.60;4.43;;;29.40;69.80;;;;;;5068418;28;20303;-73
2023/07/10 07:05:08;;;;;;;5.63;4.90;;;29.50;70.10;;;;;;5065220;28;20327;-73
2023/07/10 07:07:38;;;;;;;5.97;4.47;;;29.70;70.00;;;;;;5057845;28;20314;-73
2023/07/10 07:10:07;;;;;;;6.23;4.70;;;29.80;69.40;;;;;;5063386;28;20611;-73
2023/07/10 07:12:35;;;;;;;6.53;4.43;;;29.80;69.30;;;;;;5063914;28;20209;-73
2023/07/10 07:15:01;;;;;;;6.50;4.73;;;29.80;69.10;;;;;;5064881;28;20225;-73
2023/07/10 07:17:28;;;;;;;5.97;4.63;;;29.80;69.80;;;;;;5062969;28;20229;-73
2023/07/10 07:19:55;;;;;;;4.50;4.10;;;29.70;68.90;;;;;;5063999;28;20718;-73
2023/07/10 07:22:22;;;;;;;5.60;4.33;;;29.70;69.50;;;;;;5065673;28;20776;-73
2023/07/10 07:24:50;;;;;;;5.90;4.90;;;29.80;69.10;;;;;;5062005;28;20296;-73
2023/07/10 07:27:17;;;;;;;5.57;4.53;;;29.70;69.20;;;;;;5063985;28;20227;-73
2023/07/10 07:29:44;;;;;;;6.67;4.90;;;29.90;69.10;;;;;;5054006;28;21561;-71
2023/07/10 07:32:11;;;;;;;5.87;4.37;;;29.80;69.10;;;;;;5065914;28;20203;-72
2023/07/10 07:34:38;;;;;;;6.33;4.57;;;29.90;69.00;;;;;;5065368;28;20236;-71
2023/07/10 07:37:06;;;;;;;7.03;4.50;;;30.00;68.20;;;;;;5065618;28;20301;-71
2023/07/10 07:39:33;;;;;;;5.83;4.50;;;30.10;68.20;;;;;;5063857;28;20205;-71
2023/07/10 07:42:01;;;;;;;4.80;4.40;;;30.20;67.90;;;;;;5064149;28;20705;-71
2023/07/10 07:44:29;;;;;;;6.57;4.70;;;30.40;67.20;;;;;;5045143;28;20225;-72
2023/07/10 07:46:58;;;;;;;5.70;4.07;;;30.40;66.50;;;;;;5045097;28;20223;-72
2023/07/10 07:49:26;;;;;;;4.97;4.33;;;30.50;67.00;;;;;;5044541;28;20211;-72
2023/07/10 07:51:53;;;;;;;5.37;4.83;;;30.60;66.40;;;;;;5045480;28;20216;-72
2023/07/10 07:54:20;;;;;;;6.87;4.80;;;30.70;66.30;;;;;;5048757;28;20213;-72
2023/07/10 07:56:48;;;;;;;7.20;4.80;;;30.70;65.80;;;;;;5058608;28;20205;-73
2023/07/10 07:59:18;;;;;;;5.67;4.90;;;30.60;66.10;;;;;;5069124;28;20327;-73
2023/07/10 08:01:44;;;;;;;6.43;4.97;;;30.60;66.00;;;;;;5068342;28;20658;-71
2023/07/10 08:04:11;;;;;;;5.53;4.60;;;30.60;66.10;;;;;;5070648;28;20220;-71
2023/07/10 08:06:38;;;;;;;6.17;4.70;;;30.50;66.60;;;;;;5070856;28;20229;-72
2023/07/10 08:09:05;;;;;;;6.80;4.77;;;30.50;66.80;;;;;;5070995;28;20215;-71
2023/07/10 08:11:32;;;;;;;8.07;5.03;;;30.50;66.60;;;;;;5073094;28;20214;-72
2023/07/10 08:13:59;;;;;;;6.17;5.40;;;30.40;66.60;;;;;;5055095;28;20244;-71
2023/07/10 08:16:27;;;;;;;8.67;5.13;;;30.40;66.80;;;;;;5055353;28;20197;-71
2023/07/10 08:18:54;;;;;;;6.00;5.40;;;30.40;66.70;;;;;;5054912;28;20216;-71
2023/07/10 08:21:21;;;;;;;6.00;4.67;;;30.50;66.80;;;;;;5055565;28;20201;-71
2023/07/10 08:23:48;;;;;;;5.93;5.40;;;30.60;66.60;;;;;;5065546;28;20717;-71
2023/07/10 08:26:15;;;;;;;8.77;5.10;;;30.70;66.40;;;;;;5075131;28;20670;-71
2023/07/10 08:28:42;;;;;;;5.47;4.83;;;30.80;66.00;;;;;;5073879;28;20203;-72
2023/07/10 08:31:09;;;;;;;5.70;5.00;;;31.00;66.00;;;;;;5073642;28;20233;-71
2023/07/10 08:33:38;;;;;;;5.27;4.77;;;31.10;65.80;;;;;;5072443;28;20205;-72
2023/07/10 08:36:07;;;;;;;5.80;5.20;;;31.10;64.70;;;;;;5071996;28;20235;-71
2023/07/10 08:38:36;;;;;;;5.33;4.83;;;31.10;64.40;;;;;;5074641;28;20232;-71
2023/07/10 08:41:16;;;;;;;5.90;5.17;;;31.10;64.50;;;;;;5072988;28;20205;-71
2023/07/10 08:43:44;;;;;;;5.67;5.13;;;31.20;64.40;;;;;;5058896;28;20660;-71
2023/07/10 08:46:14;;;;;;;7.57;5.10;;;31.20;64.20;;;;;;5058299;28;20212;-71
2023/07/10 08:48:47;;;;;;;5.80;5.10;;;31.10;64.40;;;;;;5074274;28;20231;-71
2023/07/10 08:51:39;;;;;;;5.40;4.90;;;31.20;63.90;;;;;;5073685;28;20221;-71
2023/07/10 08:54:10;;;;;;;8.77;4.77;;;31.30;63.90;;;;;;5074414;28;20189;-72
2023/07/10 08:56:43;;;;;;;7.00;5.00;;;31.20;63.50;;;;;;5074209;28;20197;-72
2023/07/10 08:59:27;;;;;;;6.03;5.23;;;31.30;64.10;;;;;;5074260;28;20217;-72
2023/07/10 09:01:54;;;;;;;6.43;4.70;;;31.30;63.60;;;;;;5073453;28;20542;-72
2023/07/10 09:04:23;;;;;;;6.77;5.00;;;31.50;63.30;;;;;;5074060;28;20235;-72
2023/07/10 09:06:52;;;;;;;5.87;5.17;;;31.50;63.50;;;;;;5073023;28;20301;-72
2023/07/10 09:09:34;;;;;;;9.03;5.33;;;31.60;63.20;;;;;;5072277;28;20685;-73
2023/07/10 09:12:06;;;;;;;7.70;5.27;;;31.70;63.80;;;;;;5072973;28;20709;-72
2023/07/10 09:14:41;;;;;;;5.90;5.27;;;31.70;62.60;;;;;;5073827;28;20220;-73
2023/07/10 09:17:17;;;;;;;5.90;5.20;;;31.80;62.10;;;;;;5072575;28;20199;-72
2023/07/10 09:19:49;;;;;;;5.43;4.73;;;31.60;62.20;;;;;;5072906;28;20197;-72
2023/07/10 09:22:16;;;;;;;7.87;4.80;;;31.70;63.10;;;;;;5071960;28;20317;-72
2023/07/10 09:24:43;;;;;;;6.07;5.47;;;31.60;62.10;;;;;;5072998;28;20222;-72
2023/07/10 09:27:13;;;;;;;7.40;5.70;;;31.70;61.80;;;;;;5072213;28;20241;-72
2023/07/10 09:29:41;;;;;;;9.97;4.83;;;31.70;61.40;;;;;;5070670;28;20205;-73
2023/07/10 09:32:13;;;;;;;6.83;4.93;;;31.70;61.40;;;;;;5072166;28;20293;-73
2023/07/10 09:34:45;;;;;;;5.20;4.70;;;31.70;60.50;;;;;;5072904;28;20240;-73
2023/07/10 09:37:18;;;;;;;7.50;5.10;;;31.70;60.10;;;;;;5072134;28;20189;-72
2023/07/10 09:39:45;;;;;;;5.93;5.23;;;31.90;60.40;;;;;;5070293;28;20192;-72
2023/07/10 09:42:17;;;;;;;6.83;5.27;;;32.00;59.80;;;;;;5071514;28;20690;-72
2023/07/10 09:44:51;;;;;;;7.37;5.07;;;32.00;60.30;;;;;;5072408;28;20201;-70
2023/07/10 09:47:19;;;;;;;5.63;5.13;;;32.20;60.20;;;;;;5070987;28;20221;-70
2023/07/10 09:49:49;;;;;;;6.43;5.07;;;32.30;59.80;;;;;;5072181;28;20196;-71
2023/07/10 09:52:23;;;;;;;5.77;5.27;;;32.30;59.00;;;;;;5071758;28;20210;-71
2023/07/10 09:54:57;;;;;;;6.83;4.97;;;32.10;59.40;;;;;;5071891;28;20262;-71
2023/07/10 09:57:24;;;;;;;7.10;5.43;;;32.30;59.80;;;;;;5071904;28;20847;-71
2023/07/10 09:59:52;;;;;;;5.50;5.00;;;32.40;59.00;;;;;;5071817;28;20585;-72
2023/07/10 10:02:22;;;;;;;6.47;5.27;;;32.40;58.70;;;;;;5071344;28;20219;-71
2023/07/10 10:05:04;;;;;;;6.73;5.40;;;32.40;58.30;;;;;;5051747;28;20210;-71
2023/07/10 10:07:39;;;;;;;5.50;5.00;;;32.40;58.80;;;;;;5068657;28;20237;-71
2023/07/10 10:10:24;;;;;;;5.40;4.90;;;32.60;58.50;;;;;;5072183;28;20282;-71
2023/07/10 10:12:57;;;;;;;5.53;4.90;;;32.60;58.00;;;;;;5071949;28;20232;-72
2023/07/10 10:15:39;;;;;;;5.50;5.00;;;32.70;58.70;;;;;;5071362;28;20206;-72
2023/07/10 10:18:13;;;;;;;6.53;5.27;;;32.80;56.80;;;;;;5071763;28;20199;-72
2023/07/10 10:20:41;;;;;;;5.93;4.67;;;33.00;57.70;;;;;;5071773;28;20232;-73
2023/07/10 10:23:27;;;;;;;7.93;5.73;;;33.00;56.70;;;;;;5071566;28;20227;-73
2023/07/10 10:25:59;;;;;;;7.27;5.30;;;33.00;56.70;;;;;;5071486;28;20703;-72
2023/07/10 10:28:35;;;;;;;5.80;5.17;;;33.10;57.30;;;;;;5070890;28;20196;-72
2023/07/10 10:31:08;;;;;;;5.43;4.93;;;33.30;55.50;;;;;;5071824;28;20546;-72
2023/07/10 10:33:41;;;;;;;8.67;4.87;;;33.30;55.20;;;;;;5072149;28;20236;-72
2023/07/10 10:36:22;;;;;;;5.20;4.60;;;33.40;55.50;;;;;;5072829;28;20192;-72
2023/07/10 10:38:59;;;;;;;4.97;4.47;;;33.50;55.00;;;;;;5052470;28;20316;-72
2023/07/10 10:41:41;;;;;;;5.90;4.70;;;33.60;54.60;;;;;;5052800;28;20231;-72
2023/07/10 10:44:18;;;;;;;5.70;4.23;;;33.80;54.30;;;;;;5070843;28;20231;-72
2023/07/10 10:46:56;;;;;;;5.20;4.70;;;33.90;53.10;;;;;;5071326;28;20212;-72
2023/07/10 10:49:46;;;;;;;7.10;4.63;;;33.90;53.10;;;;;;5070292;28;20205;-72
2023/07/10 10:52:23;;;;;;;4.63;4.03;;;34.00;53.00;;;;;;5064735;28;20192;-72
2023/07/10 10:55:00;;;;;;;5.40;4.63;;;34.00;50.10;;;;;;5071896;28;20195;-72
2023/07/10 10:57:39;;;;;;;5.00;4.50;;;33.80;50.90;;;;;;5070545;28;20219;-72
2023/07/10 11:00:19;;;;;;;5.00;4.50;;;33.90;50.40;;;;;;5054845;28;20252;-72
2023/07/10 11:02:59;;;;;;;5.57;4.67;;;34.00;49.90;;;;;;5059818;28;20216;-73
2023/07/10 11:05:35;;;;;;;5.53;4.20;;;34.00;49.50;;;;;;5070799;28;20723;-71
2023/07/10 11:08:06;;;;;;;4.47;3.90;;;34.10;48.60;;;;;;5070453;28;20208;-71
2023/07/10 11:10:38;;;;;;;4.57;4.17;;;34.00;47.90;;;;;;5069712;28;20913;-73
2023/07/10 11:13:06;;;;;;;6.87;4.10;;;34.00;47.20;;;;;;5070810;28;20196;-71
2023/07/10 11:15:34;;;;;;;6.50;4.80;;;34.00;47.50;;;;;;5070990;28;20231;-71
2023/07/10 11:18:01;;;;;;;5.67;4.43;;;34.00;47.60;;;;;;5070733;28;20234;-71
2023/07/10 11:20:28;;;;;;;4.10;3.80;;;33.90;47.30;;;;;;5071121;28;20205;-73
2023/07/10 11:22:57;;;;;;;4.63;4.13;;;33.80;47.00;;;;;;5071111;28;20299;-72
2023/07/10 11:25:33;;;;;;;5.20;4.03;;;33.90;47.70;;;;;;5070976;28;20272;-72
2023/07/10 11:28:05;;;;;;;6.10;4.03;;;34.00;49.10;;;;;;5050021;28;20228;-72
2023/07/10 11:30:33;;;;;;;5.03;4.00;;;34.00;47.50;;;;;;5068942;28;20193;-72
2023/07/10 11:33:05;;;;;;;5.27;4.40;;;34.10;47.40;;;;;;5070464;28;20205;-72
2023/07/10 11:35:32;;;;;;;5.17;4.30;;;34.20;47.00;;;;;;5071302;28;20279;-72
2023/07/10 11:38:17;;;;;;;4.83;4.43;;;34.20;46.90;;;;;;5070042;28;20228;-72
2023/07/10 11:41:09;;;;;;;4.37;3.90;;;34.40;46.70;;;;;;5070337;28;20192;-72
2023/07/10 11:44:18;;;;;;;4.50;3.97;;;34.50;45.20;;;;;;5070649;28;20193;-72
2023/07/10 11:47:03;;;;;;;4.43;3.93;;;34.40;45.10;;;;;;5074652;28;20236;-72
2023/07/10 11:49:45;;;;;;;4.57;4.13;;;34.40;45.70;;;;;;5075002;28;20218;-72
2023/07/10 11:52:28;;;;;;;4.37;3.97;;;34.20;44.80;;;;;;5073712;28;20778;-72
2023/07/10 11:55:12;;;;;;;4.50;4.10;;;34.40;45.30;;;;;;5072870;28;20196;-73
2023/07/10 11:57:39;;;;;;;5.20;4.07;;;34.50;46.20;;;;;;5074836;28;20195;-72
2023/07/10 12:00:25;;;;;;;5.90;4.40;;;34.60;46.00;;;;;;5074011;28;20572;-72
2023/07/10 12:02:54;;;;;;;5.10;4.60;;;34.60;46.00;;;;;;5074685;28;20241;-73
2023/07/10 12:05:23;;;;;;;4.30;3.90;;;34.80;46.10;;;;;;5074174;28;20213;-71
2023/07/10 12:07:56;;;;;;;5.47;4.30;;;34.70;44.20;;;;;;5073912;28;20720;-73
2023/07/10 12:10:24;;;;;;;4.80;4.30;;;34.70;43.80;;;;;;5074571;28;20612;-72
2023/07/10 12:12:51;;;;;;;5.17;4.33;;;34.70;44.70;;;;;;5073608;28;20231;-72
2023/07/10 12:15:20;;;;;;;4.60;4.20;;;34.80;44.80;;;;;;5074716;28;20201;-72
2023/07/10 12:17:54;;;;;;;4.40;4.00;;;34.80;44.30;;;;;;5074316;28;20202;-72
2023/07/10 12:20:30;;;;;;;4.40;4.00;;;35.00;44.10;;;;;;5074321;28;20260;-73
2023/07/10 12:23:01;;;;;;;7.10;3.87;;;34.90;43.50;;;;;;5074224;28;20205;-72
2023/07/10 12:25:28;;;;;;;6.97;4.20;;;34.70;43.20;;;;;;5074401;28;20536;-72
2023/07/10 12:27:55;;;;;;;3.90;3.60;;;34.70;43.70;;;;;;5073290;28;20733;-72
2023/07/10 12:30:26;;;;;;;5.97;3.67;;;34.70;42.00;;;;;;5073829;28;20288;-72
2023/07/10 12:32:56;;;;;;;7.03;3.43;;;34.70;42.30;;;;;;5073951;28;20201;-72
2023/07/10 12:35:29;;;;;;;6.07;4.27;;;34.90;41.90;;;;;;5073346;28;20236;-72
2023/07/10 12:37:58;;;;;;;4.30;3.90;;;34.90;41.90;;;;;;5073394;28;20236;-72
2023/07/10 12:40:26;;;;;;;4.37;3.97;;;35.00;42.90;;;;;;5074245;28;20240;-73
2023/07/10 12:42:53;;;;;;;4.60;4.03;;;35.20;42.70;;;;;;5073945;28;20197;-72
2023/07/10 12:45:32;;;;;;;5.23;3.50;;;35.10;40.40;;;;;;5073348;28;20298;-72
2023/07/10 12:48:09;;;;;;;6.27;3.73;;;35.10;40.20;;;;;;5073172;28;20237;-72
2023/07/10 12:50:42;;;;;;;3.87;3.40;;;35.10;40.40;;;;;;5073558;28;20185;-73
2023/07/10 12:53:18;;;;;;;3.87;3.40;;;35.00;40.50;;;;;;5074132;28;20200;-72
2023/07/10 12:55:45;;;;;;;5.70;3.70;;;34.90;40.00;;;;;;5073772;28;20320;-72
2023/07/10 12:58:15;;;;;;;5.13;3.70;;;34.90;39.70;;;;;;5071632;28;20690;-72
2023/07/10 13:00:48;;;;;;;3.97;3.60;;;35.00;39.80;;;;;;5062722;28;20200;-72